Portada
METAR-TAF:

METAR-TAF

Aeropuertos :

Nuakchot, Mauritania

Aeropuerto Internacional de Nuakchot

latitud: 18-18-36N, longitud: 015-58-11W, altitud: 3 m

Observación

El informe se hizo hace 30 minutos, a las 18:00 UTC
Viento 13 kt del oeste-suroeste
Temperatura 28°C
Humedad 70%
Presión 1009 hPa
Visibilidad: 8000 m

METAR: GQNO 221800Z 24013KT 8000 NSC 28/22 Q1009 NOSIG

Hora: 18:30 (18:30 UTC)

Pronóstico

El informe se hizo hace 1 hora y 30 minutos, a las 17:00 UTC
Pronóstico válido del 22 a las 18 UTC al 23 a las 24 UTC
Viento 10 kt del oeste-suroeste
Visibilidad: 7000 m
Temporalmente
del 23 a las 03 UTC al 23 a las 08 UTC
Cielo nuboso a una altura de 600 ft
Evolucionando progresivamente
del 23 a las 12 UTC al 23 a las 14 UTC
Viento 13 kt del oeste-noroeste

TAF: GQNO 221700Z 2218/2324 24010KT 7000 NSC TEMPO 2303/2308 BKN006 BECMG 2312/2314 30013KT

Observaciones y pronósticos meteorológicos de más de 4000 aeropuertos (mensajes METAR y TAF).

Los puntos amarillos y rojos representan las estaciones disponibles.

Ponga el ratón en el punto deseado para ver el nombre de la estación.

Haga clic para ver las observaciones y los pronósticos meteorológicos.

Para cambiar el mapa : haga clic en los botones verdes con una cruz de color negro para hacer un zoom, en el botón verde con un guión para alejar o en las flechas verdes para mapas adyacentes.


METAR-TAF: